createdAt,value
2019-04-07T00:00:49.290Z,8.63
2019-04-07T00:03:19.526Z,7.65
2019-04-07T00:05:49.442Z,7.80
2019-04-07T00:08:19.031Z,10.07
2019-04-07T00:10:50.507Z,7.62
2019-04-07T00:13:20.038Z,7.83
2019-04-07T00:15:49.951Z,7.30
2019-04-07T00:18:19.536Z,7.20
2019-04-07T00:20:50.193Z,7.05
2019-04-07T00:23:20.042Z,6.87
2019-04-07T00:25:49.641Z,8.93
2019-04-07T00:28:19.635Z,8.78
2019-04-07T00:30:51.283Z,7.00
2019-04-07T00:33:20.842Z,9.40
2019-04-07T00:35:50.921Z,8.17
2019-04-07T00:38:20.406Z,8.33
2019-04-07T00:40:50.764Z,7.05
2019-04-07T00:43:20.901Z,7.77
2019-04-07T00:45:51.192Z,7.50
2019-04-07T00:48:21.177Z,7.50
2019-04-07T00:50:52.002Z,6.53
2019-04-07T00:53:22.035Z,8.27
2019-04-07T00:55:51.588Z,7.50
2019-04-07T00:58:21.467Z,6.63
2019-04-07T01:00:51.261Z,6.30
2019-04-07T01:03:20.780Z,6.77
2019-04-07T01:05:50.272Z,7.20
2019-04-07T01:08:19.765Z,8.53
2019-04-07T01:10:49.265Z,7.77
2019-04-07T01:13:18.757Z,8.00
2019-04-07T01:15:48.425Z,10.30
2019-04-07T01:18:18.201Z,7.73
2019-04-07T01:20:48.418Z,8.13
2019-04-07T01:23:18.206Z,9.87
2019-04-07T01:25:47.848Z,8.67
2019-04-07T01:28:17.342Z,6.77
2019-04-07T01:30:46.958Z,7.20
2019-04-07T01:33:16.421Z,10.35
2019-04-07T01:35:49.358Z,9.28
2019-04-07T01:38:17.965Z,7.00
2019-04-07T01:41:01.050Z,7.07
2019-04-07T01:43:38.194Z,8.00
2019-04-07T01:46:09.858Z,7.33
2019-04-07T01:48:43.704Z,7.07
2019-04-07T01:51:14.867Z,7.37
2019-04-07T01:53:49.681Z,6.53
2019-04-07T01:56:21.017Z,9.47
2019-04-07T01:58:59.370Z,6.70
2019-04-07T02:01:31.229Z,9.03
2019-04-07T02:04:02.974Z,8.00
2019-04-07T02:06:39.956Z,8.33
2019-04-07T02:09:29.043Z,7.93
2019-04-07T02:12:10.458Z,8.75
2019-04-07T02:14:41.977Z,7.33
2019-04-07T02:17:14.681Z,7.86
2019-04-07T02:20:01.343Z,7.37
2019-04-07T02:22:48.305Z,8.13
2019-04-07T02:25:19.908Z,8.40
2019-04-07T02:27:51.218Z,7.87
2019-04-07T02:30:26.145Z,8.03
2019-04-07T02:33:06.242Z,8.30
2019-04-07T02:35:37.828Z,7.85
2019-04-07T02:38:18.225Z,8.87
2019-04-07T02:40:53.438Z,7.90
2019-04-07T02:43:25.296Z,8.38
2019-04-07T02:46:05.841Z,9.60
2019-04-07T02:48:46.805Z,8.47
2019-04-07T02:51:20.788Z,10.43
2019-04-07T02:54:09.146Z,8.43
2019-04-07T02:56:56.698Z,8.78
2019-04-07T02:59:27.827Z,8.88
2019-04-07T03:02:05.784Z,7.80
2019-04-07T03:04:37.224Z,11.10
2019-04-07T03:07:11.563Z,8.00
2019-04-07T03:10:00.643Z,9.37
2019-04-07T03:12:33.229Z,9.90
2019-04-07T03:15:07.098Z,9.18
2019-04-07T03:17:54.115Z,10.07
2019-04-07T03:20:29.602Z,10.43
2019-04-07T03:23:16.394Z,9.93
2019-04-07T03:25:53.516Z,9.00
2019-04-07T03:28:42.461Z,9.30
2019-04-07T03:31:17.712Z,11.00
2019-04-07T03:33:59.632Z,8.27
2019-04-07T03:37:12.612Z,8.87
2019-04-07T03:39:20.463Z,10.43
2019-04-07T03:42:01.098Z,8.53
2019-04-07T03:44:42.815Z,8.55
2019-04-07T03:47:16.490Z,8.20
2019-04-07T03:49:47.786Z,11.13
2019-04-07T03:52:25.100Z,8.18
2019-04-07T03:55:01.989Z,9.20
2019-04-07T03:57:50.911Z,8.73
2019-04-07T04:01:02.468Z,9.63
2019-04-07T04:03:34.614Z,9.18
2019-04-07T04:06:09.087Z,9.60
2019-04-07T04:08:43.111Z,8.67
2019-04-07T04:11:18.182Z,8.90
2019-04-07T04:14:02.838Z,8.77
2019-04-07T04:16:34.104Z,8.73
2019-04-07T04:19:05.138Z,10.32
2019-04-07T04:21:34.734Z,10.40
2019-04-07T04:24:04.332Z,11.80
2019-04-07T04:26:34.348Z,11.13
2019-04-07T04:29:04.059Z,10.95
2019-04-07T04:31:33.866Z,10.40
2019-04-07T04:34:03.431Z,10.17
2019-04-07T04:36:33.492Z,10.37
2019-04-07T04:39:03.494Z,12.88
2019-04-07T04:41:34.837Z,11.48
2019-04-07T04:44:04.990Z,10.57
2019-04-07T04:46:34.894Z,9.88
2019-04-07T04:49:04.387Z,10.90
2019-04-07T04:51:37.849Z,11.30
2019-04-07T04:54:05.302Z,11.03
2019-04-07T04:56:34.845Z,11.37
2019-04-07T04:59:04.342Z,11.30
2019-04-07T05:01:34.461Z,9.93
2019-04-07T05:04:04.090Z,12.03
2019-04-07T05:06:33.589Z,11.20
2019-04-07T05:09:05.469Z,12.17
2019-04-07T05:11:35.862Z,10.90
2019-04-07T05:14:06.017Z,13.30
2019-04-07T05:16:35.669Z,10.30
2019-04-07T05:19:05.189Z,11.45
2019-04-07T05:21:35.006Z,10.63
2019-04-07T05:24:04.744Z,10.47
2019-04-07T05:26:34.771Z,10.53
2019-04-07T05:29:04.741Z,11.07
2019-04-07T05:31:34.763Z,9.83
2019-04-07T05:34:04.243Z,10.03
2019-04-07T05:36:33.756Z,9.90
2019-04-07T05:39:05.334Z,11.13
2019-04-07T05:41:34.864Z,11.60
2019-04-07T05:44:04.640Z,13.00
2019-04-07T05:46:38.639Z,10.90
2019-04-07T05:49:05.489Z,10.37
2019-04-07T05:51:34.989Z,10.90
2019-04-07T05:54:04.604Z,13.77
2019-04-07T05:56:34.813Z,10.63
2019-04-07T05:59:04.462Z,14.20
2019-04-07T06:01:34.539Z,12.50
2019-04-07T06:04:04.063Z,11.20
2019-04-07T06:06:34.271Z,12.90
2019-04-07T06:09:06.389Z,9.40
2019-04-07T06:11:36.236Z,11.57
2019-04-07T06:14:05.815Z,9.93
2019-04-07T06:16:35.324Z,12.57
2019-04-07T06:19:07.883Z,11.10
2019-04-07T06:21:36.632Z,14.47
2019-04-07T06:24:06.268Z,11.70
2019-04-07T06:26:36.427Z,11.57
2019-04-07T06:29:06.988Z,11.75
2019-04-07T06:31:36.514Z,11.00
2019-04-07T06:34:10.054Z,12.82
2019-04-07T06:36:38.535Z,12.20
2019-04-07T06:39:09.540Z,12.60
2019-04-07T06:41:39.146Z,16.90
2019-04-07T06:44:13.515Z,12.07
2019-04-07T06:46:41.541Z,12.23
2019-04-07T06:49:21.935Z,9.73
2019-04-07T06:52:02.945Z,14.20
2019-04-07T06:54:50.064Z,10.50
2019-04-07T06:57:26.782Z,11.25
2019-04-07T07:00:12.807Z,11.60
2019-04-07T07:02:45.434Z,12.43
2019-04-07T07:05:35.000Z,10.95
2019-04-07T07:08:12.647Z,11.93
2019-04-07T07:10:50.798Z,10.98
2019-04-07T07:13:32.413Z,12.58
2019-04-07T07:16:09.599Z,14.47
2019-04-07T07:18:43.670Z,15.57
2019-04-07T07:21:31.527Z,15.73
2019-04-07T07:24:01.217Z,14.27
2019-04-07T07:26:35.102Z,15.97
2019-04-07T07:29:02.074Z,14.37
2019-04-07T07:31:31.656Z,14.90
2019-04-07T07:34:01.185Z,15.53
2019-04-07T07:36:30.710Z,15.13
2019-04-07T07:39:02.201Z,15.87
2019-04-07T07:41:31.586Z,19.23
2019-04-07T07:44:03.626Z,19.37
2019-04-07T07:46:32.430Z,16.40
2019-04-07T07:49:02.192Z,19.23
2019-04-07T07:51:31.852Z,19.97
2019-04-07T07:54:02.123Z,17.73
2019-04-07T07:56:31.705Z,22.73
2019-04-07T07:59:01.779Z,23.47
2019-04-07T08:01:32.247Z,25.15
2019-04-07T08:04:02.018Z,24.87
2019-04-07T08:06:31.749Z,24.57
2019-04-07T08:09:11.983Z,26.57
2019-04-07T08:11:34.396Z,22.07
2019-04-07T08:14:03.851Z,26.17
2019-04-07T08:16:33.574Z,27.93
2019-04-07T08:19:03.859Z,27.80
2019-04-07T08:21:33.736Z,29.08
2019-04-07T08:24:03.649Z,25.37
2019-04-07T08:26:33.341Z,27.98
2019-04-07T08:29:05.753Z,28.60
2019-04-07T08:31:34.868Z,30.10
2019-04-07T08:34:04.653Z,29.47
2019-04-07T08:36:34.777Z,30.95
2019-04-07T08:39:18.528Z,34.33
2019-04-07T08:41:40.656Z,31.62
2019-04-07T08:44:09.370Z,30.43
2019-04-07T08:46:41.744Z,32.73
2019-04-07T08:49:10.173Z,32.33
2019-04-07T08:51:40.407Z,32.23
2019-04-07T08:54:09.969Z,32.17
2019-04-07T08:56:39.464Z,33.42
2019-04-07T08:59:12.123Z,31.87
2019-04-07T09:01:40.495Z,30.23
2019-04-07T09:04:10.037Z,32.78
2019-04-07T09:06:39.682Z,28.80
2019-04-07T09:09:09.953Z,28.77
2019-04-07T09:11:41.230Z,30.73
2019-04-07T09:14:10.918Z,30.60
2019-04-07T09:16:58.404Z,30.97
2019-04-07T09:19:30.958Z,28.80
2019-04-07T09:22:10.625Z,28.87
2019-04-07T09:24:41.767Z,31.80
2019-04-07T09:27:17.117Z,33.73
2019-04-07T09:29:58.797Z,32.30
2019-04-07T09:32:46.046Z,31.05
2019-04-07T09:35:33.442Z,30.15
2019-04-07T09:38:08.109Z,31.83
2019-04-07T09:40:55.973Z,32.20
2019-04-07T09:43:43.921Z,30.90
2019-04-07T09:46:31.172Z,32.73
2019-04-07T09:49:17.075Z,33.40
2019-04-07T09:52:00.043Z,35.20
2019-04-07T09:54:31.205Z,33.53
2019-04-07T09:57:05.057Z,33.70
2019-04-07T09:59:52.452Z,34.67
2019-04-07T10:02:30.761Z,32.50
2019-04-07T10:05:03.357Z,31.60
2019-04-07T10:07:34.888Z,32.97
2019-04-07T10:10:14.889Z,33.73
2019-04-07T10:13:02.087Z,32.13
2019-04-07T10:15:31.679Z,32.10
2019-04-07T10:18:08.785Z,34.20
2019-04-07T10:20:52.053Z,34.00
2019-04-07T10:23:40.292Z,39.27
2019-04-07T10:26:16.989Z,33.60
2019-04-07T10:28:57.785Z,33.03
2019-04-07T10:31:31.692Z,36.20
2019-04-07T10:34:19.091Z,34.33
2019-04-07T10:36:51.019Z,32.28
2019-04-07T10:39:38.156Z,33.73
2019-04-07T10:42:25.542Z,33.14
2019-04-07T10:45:00.871Z,30.63
2019-04-07T10:47:46.630Z,32.13
2019-04-07T10:50:24.611Z,33.92
2019-04-07T10:53:02.812Z,31.77
2019-04-07T10:55:38.060Z,30.52
2019-04-07T10:58:15.238Z,32.03
2019-04-07T11:00:49.375Z,33.94
2019-04-07T11:03:30.224Z,32.55
2019-04-07T11:06:17.012Z,37.45
2019-04-07T11:08:49.017Z,34.43
2019-04-07T11:11:36.084Z,34.67
2019-04-07T11:14:17.355Z,35.28
2019-04-07T11:17:04.838Z,35.52
2019-04-07T11:19:36.517Z,39.17
2019-04-07T11:22:23.683Z,34.84
2019-04-07T11:25:09.756Z,36.45
2019-04-07T11:27:50.421Z,35.38
2019-04-07T11:30:27.512Z,33.70
2019-04-07T11:32:57.538Z,30.80
2019-04-07T11:35:32.955Z,30.57
2019-04-07T11:38:13.568Z,44.27
2019-04-07T11:40:50.927Z,32.30
2019-04-07T11:43:31.494Z,32.90
2019-04-07T11:46:03.361Z,30.20
2019-04-07T11:48:35.101Z,30.03
2019-04-07T11:51:09.595Z,29.10
2019-04-07T11:53:56.596Z,29.18
2019-04-07T11:56:28.562Z,29.70
2019-04-07T11:59:09.169Z,30.43
2019-04-07T12:01:41.939Z,28.63
2019-04-07T12:04:22.778Z,30.33
2019-04-07T12:07:11.096Z,30.63
2019-04-07T12:09:57.111Z,30.08
2019-04-07T12:12:31.179Z,29.63
2019-04-07T12:15:02.312Z,28.25
2019-04-07T12:17:49.186Z,28.20
2019-04-07T12:20:36.541Z,25.57
2019-04-07T12:23:15.913Z,27.50
2019-04-07T12:25:46.097Z,26.50
2019-04-07T12:28:19.107Z,27.13
2019-04-07T12:30:59.925Z,27.77
2019-04-07T12:33:44.047Z,26.53
2019-04-07T12:36:15.180Z,25.83
2019-04-07T12:38:45.090Z,26.07
2019-04-07T12:41:23.416Z,24.82
2019-04-07T12:43:57.727Z,24.80
2019-04-07T12:46:30.044Z,24.43
2019-04-07T12:49:06.797Z,24.00
2019-04-07T12:51:47.236Z,23.93
2019-04-07T12:54:34.251Z,21.45
2019-04-07T12:57:21.968Z,23.87
2019-04-07T13:00:03.151Z,23.02
2019-04-07T13:02:53.810Z,22.15
2019-04-07T13:05:39.900Z,21.90
2019-04-07T13:08:11.045Z,21.57
2019-04-07T13:10:46.007Z,22.60
2019-04-07T13:13:31.645Z,22.27
2019-04-07T13:16:01.206Z,22.70
2019-04-07T13:18:48.552Z,20.85
2019-04-07T13:21:24.845Z,22.17
2019-04-07T13:24:03.631Z,21.20
2019-04-07T13:26:50.041Z,21.37
2019-04-07T13:29:30.160Z,20.35
2019-04-07T13:32:18.781Z,21.37
2019-04-07T13:34:49.952Z,21.07
2019-04-07T13:37:36.734Z,20.20
2019-04-07T13:40:13.197Z,21.27
2019-04-07T13:42:56.653Z,20.90
2019-04-07T13:45:44.612Z,22.37
2019-04-07T13:48:29.094Z,24.70
2019-04-07T13:51:00.386Z,21.90
2019-04-07T13:53:34.342Z,22.43
2019-04-07T13:56:12.330Z,20.93
2019-04-07T13:58:44.316Z,21.73
2019-04-07T14:01:24.227Z,21.03
2019-04-07T14:04:12.045Z,22.73
2019-04-07T14:06:45.034Z,23.22
2019-04-07T14:09:32.489Z,22.93
2019-04-07T14:12:14.259Z,25.48
2019-04-07T14:14:45.723Z,22.43
2019-04-07T14:17:18.146Z,23.80
2019-04-07T14:19:49.854Z,23.67
2019-04-07T14:22:23.371Z,22.25
2019-04-07T14:25:07.974Z,24.85
2019-04-07T14:27:47.660Z,19.67
2019-04-07T14:30:19.179Z,23.13
2019-04-07T14:33:02.334Z,20.57
2019-04-07T14:35:39.166Z,21.63
2019-04-07T14:38:11.069Z,24.00
2019-04-07T14:40:45.677Z,21.13
2019-04-07T14:43:17.695Z,21.73
2019-04-07T14:45:54.637Z,22.47
2019-04-07T14:48:33.726Z,21.73
2019-04-07T14:51:05.858Z,20.53
2019-04-07T14:53:53.081Z,21.10
2019-04-07T14:56:40.846Z,18.87
2019-04-07T14:59:13.065Z,19.15
2019-04-07T15:01:44.733Z,19.82
2019-04-07T15:04:14.456Z,18.12
2019-04-07T15:06:45.974Z,17.63
2019-04-07T15:09:22.772Z,19.50
2019-04-07T15:11:53.905Z,18.42
2019-04-07T15:14:23.424Z,20.37
2019-04-07T15:16:53.511Z,16.07
2019-04-07T15:19:23.421Z,18.05
2019-04-07T15:21:54.975Z,19.92
2019-04-07T15:24:24.186Z,17.77
2019-04-07T15:26:54.123Z,18.45
2019-04-07T15:29:24.269Z,17.77
2019-04-07T15:31:54.450Z,19.37
2019-04-07T15:34:24.200Z,17.87
2019-04-07T15:36:53.875Z,18.48
2019-04-07T15:39:25.675Z,19.55
2019-04-07T15:41:55.529Z,17.45
2019-04-07T15:44:25.901Z,20.53
2019-04-07T15:46:57.474Z,16.93
2019-04-07T15:49:28.253Z,18.27
2019-04-07T15:51:59.331Z,18.53
2019-04-07T15:54:29.654Z,16.90
2019-04-07T15:57:00.022Z,15.07
2019-04-07T15:59:30.328Z,15.80
2019-04-07T16:02:01.242Z,14.10
2019-04-07T16:04:30.819Z,15.07
2019-04-07T16:07:00.346Z,16.50
2019-04-07T16:09:39.703Z,15.32
2019-04-07T16:12:01.742Z,14.23
2019-04-07T16:14:32.050Z,15.83
2019-04-07T16:17:04.135Z,17.87
2019-04-07T16:19:38.167Z,15.43
2019-04-07T16:22:04.345Z,14.97
2019-04-07T16:24:34.718Z,16.37
2019-04-07T16:27:06.707Z,14.35
2019-04-07T16:29:36.440Z,17.20
2019-04-07T16:32:06.290Z,12.63
2019-04-07T16:34:39.023Z,13.10
2019-04-07T16:37:07.055Z,13.00
2019-04-07T16:39:37.461Z,11.77
2019-04-07T16:42:07.175Z,13.20
2019-04-07T16:44:41.830Z,12.75
2019-04-07T16:47:17.801Z,12.47
2019-04-07T16:49:43.629Z,12.10
2019-04-07T16:52:10.651Z,11.03
2019-04-07T16:54:43.464Z,12.13
2019-04-07T16:57:11.392Z,39.50
2019-04-07T16:59:43.445Z,24.77
2019-04-07T17:02:14.423Z,13.53
2019-04-07T17:04:43.607Z,13.83
2019-04-07T17:07:15.696Z,13.53
2019-04-07T17:09:44.672Z,14.03
2019-04-07T17:12:15.004Z,14.57
2019-04-07T17:14:44.881Z,13.50
2019-04-07T17:17:18.282Z,13.47
2019-04-07T17:19:45.764Z,14.87
2019-04-07T17:22:16.886Z,15.00
2019-04-07T17:24:47.721Z,14.80
2019-04-07T17:27:18.259Z,14.73
2019-04-07T17:29:52.582Z,16.27
2019-04-07T17:32:19.918Z,14.77
2019-04-07T17:34:49.811Z,15.73
2019-04-07T17:37:20.079Z,14.87
2019-04-07T17:39:51.475Z,16.63
2019-04-07T17:42:25.607Z,17.73
2019-04-07T17:44:59.856Z,17.70
2019-04-07T17:47:38.088Z,20.17
2019-04-07T17:50:12.621Z,19.43
2019-04-07T17:52:44.114Z,20.00
2019-04-07T17:55:27.635Z,20.05
2019-04-07T17:58:10.147Z,22.40
2019-04-07T18:00:42.189Z,18.33
2019-04-07T18:03:14.191Z,18.55
2019-04-07T18:06:01.752Z,17.20
2019-04-07T18:08:45.311Z,23.80
2019-04-07T18:11:30.120Z,18.80
2019-04-07T18:14:02.125Z,20.23
2019-04-07T18:16:40.785Z,30.53
2019-04-07T18:19:15.254Z,45.93
2019-04-07T18:21:52.414Z,21.68
2019-04-07T18:24:26.079Z,20.12
2019-04-07T18:26:54.900Z,21.77
2019-04-07T18:29:29.553Z,21.97
2019-04-07T18:32:14.518Z,21.40
2019-04-07T18:34:58.742Z,25.53
2019-04-07T18:37:31.168Z,32.37
2019-04-07T18:40:04.791Z,22.33
2019-04-07T18:42:35.005Z,22.17
2019-04-07T18:45:18.962Z,23.77
2019-04-07T18:47:55.858Z,22.20
2019-04-07T18:50:25.029Z,21.77
2019-04-07T18:53:03.696Z,20.33
2019-04-07T18:55:35.357Z,20.23
2019-04-07T18:58:18.329Z,21.50
2019-04-07T19:00:57.407Z,21.63
2019-04-07T19:03:37.424Z,16.87
2019-04-07T19:06:18.072Z,18.90
2019-04-07T19:08:58.455Z,16.80
2019-04-07T19:11:37.348Z,18.57
2019-04-07T19:14:31.579Z,16.97
2019-04-07T19:16:50.833Z,32.53
2019-04-07T19:19:30.473Z,17.17
2019-04-07T19:22:10.992Z,20.03
2019-04-07T19:24:46.285Z,20.17
2019-04-07T19:27:21.262Z,19.63
2019-04-07T19:29:55.688Z,19.48
2019-04-07T19:32:27.153Z,18.97
2019-04-07T19:35:13.376Z,18.77
2019-04-07T19:38:00.442Z,19.27
2019-04-07T19:40:34.298Z,24.80
2019-04-07T19:43:12.531Z,19.97
2019-04-07T19:45:55.245Z,21.90
2019-04-07T19:48:42.719Z,27.37
2019-04-07T19:51:30.603Z,17.45
2019-04-07T19:54:02.477Z,19.73
2019-04-07T19:56:37.188Z,20.83
2019-04-07T19:59:10.013Z,17.37
2019-04-07T20:01:44.396Z,16.37
2019-04-07T20:04:18.534Z,15.83
2019-04-07T20:07:00.558Z,38.03
2019-04-07T20:09:45.171Z,17.03
2019-04-07T20:12:16.260Z,17.03
2019-04-07T20:15:08.780Z,61.30
2019-04-07T20:17:40.930Z,22.30
2019-04-07T20:20:24.392Z,18.73
2019-04-07T20:23:06.318Z,43.73
2019-04-07T20:25:41.059Z,121.47
2019-04-07T20:28:15.301Z,82.53
2019-04-07T20:30:51.730Z,21.20
2019-04-07T20:33:31.412Z,18.47
2019-04-07T20:36:00.010Z,22.77
2019-04-07T20:38:46.988Z,66.33
2019-04-07T20:41:18.158Z,22.10
2019-04-07T20:43:51.285Z,18.73
2019-04-07T20:46:24.018Z,20.40
2019-04-07T20:48:53.965Z,18.00
2019-04-07T20:51:34.066Z,21.73
2019-04-07T20:54:05.597Z,21.00
2019-04-07T20:56:45.879Z,21.07
2019-04-07T20:59:31.438Z,23.20
2019-04-07T21:02:07.100Z,23.07
2019-04-07T21:04:36.344Z,25.30
2019-04-07T21:07:05.645Z,27.37
2019-04-07T21:09:42.509Z,23.57
2019-04-07T21:12:32.274Z,19.57
2019-04-07T21:15:16.151Z,20.97
2019-04-07T21:17:36.369Z,19.77
2019-04-07T21:20:24.237Z,20.57
2019-04-07T21:23:14.068Z,18.80
2019-04-07T21:25:46.836Z,20.93
2019-04-07T21:28:20.421Z,19.57
2019-04-07T21:30:51.601Z,18.77
2019-04-07T21:33:23.613Z,18.93
2019-04-07T21:36:10.456Z,22.30
2019-04-07T21:38:43.278Z,19.10
2019-04-07T21:41:30.717Z,20.03
2019-04-07T21:44:03.008Z,17.50
2019-04-07T21:46:44.023Z,21.82
2019-04-07T21:49:17.826Z,19.67
2019-04-07T21:51:48.209Z,16.87
2019-04-07T21:54:22.640Z,17.57
2019-04-07T21:56:53.989Z,18.20
2019-04-07T21:59:28.471Z,16.57
2019-04-07T22:02:15.856Z,15.60
2019-04-07T22:04:54.062Z,17.25
2019-04-07T22:07:23.964Z,19.90
2019-04-07T22:09:55.126Z,17.93
2019-04-07T22:12:28.691Z,19.23
2019-04-07T22:14:56.144Z,16.27
2019-04-07T22:17:25.749Z,18.40
2019-04-07T22:19:55.220Z,17.77
2019-04-07T22:22:26.594Z,18.67
2019-04-07T22:24:56.017Z,20.53
2019-04-07T22:27:27.567Z,23.97
2019-04-07T22:29:59.779Z,19.67
2019-04-07T22:32:29.165Z,24.20
2019-04-07T22:35:02.615Z,24.40
2019-04-07T22:37:30.256Z,23.17
2019-04-07T22:40:02.066Z,24.17
2019-04-07T22:42:31.030Z,26.70
2019-04-07T22:45:00.540Z,23.33
2019-04-07T22:47:30.036Z,20.57
2019-04-07T22:50:02.526Z,21.27
2019-04-07T22:52:30.794Z,18.30
2019-04-07T22:55:03.621Z,18.47
2019-04-07T22:57:31.554Z,22.23
2019-04-07T23:00:01.068Z,22.17
2019-04-07T23:02:30.589Z,21.20
2019-04-07T23:05:00.834Z,23.23
2019-04-07T23:07:30.365Z,19.50
2019-04-07T23:10:00.467Z,20.20
2019-04-07T23:12:29.948Z,22.77
2019-04-07T23:14:59.460Z,23.83
2019-04-07T23:17:28.953Z,23.83
2019-04-07T23:19:58.864Z,18.67
2019-04-07T23:22:28.438Z,17.97
2019-04-07T23:24:57.956Z,19.20
2019-04-07T23:27:27.668Z,19.57
2019-04-07T23:29:57.211Z,18.02
2019-04-07T23:32:27.482Z,19.63
2019-04-07T23:34:57.650Z,20.60
2019-04-07T23:37:27.123Z,19.33
2019-04-07T23:39:56.645Z,19.10
2019-04-07T23:42:26.386Z,18.10
2019-04-07T23:44:56.029Z,17.77
2019-04-07T23:47:25.848Z,16.50
2019-04-07T23:49:55.362Z,18.23
2019-04-07T23:52:25.157Z,17.03
2019-04-07T23:54:54.644Z,17.00
2019-04-07T23:57:24.207Z,18.07
2019-04-07T23:59:54.104Z,16.97
